Time;durP1;ratioP1;P1;durP2;ratioP2;P2;SDS_P1;SDS_P2;PMS_P1;PMS_P2;Temp;Humidity;BMP_temperature;BMP_pressure;BME280_temperature;BME280_humidity;BME280_pressure;Samples;Min_cycle;Max_cycle;Signal;HPM_P1;HPM_P2
2022/12/28 00:00:29;;;;;;;7.65;3.13;;;7.20;99.90;;;;;;4824093;29;20048;-71
2022/12/28 00:02:58;;;;;;;8.40;3.65;;;7.20;99.90;;;;;;4861425;29;20037;-71
2022/12/28 00:05:23;;;;;;;7.85;3.80;;;7.20;99.90;;;;;;4863238;29;20068;-72
2022/12/28 00:07:49;;;;;;;8.07;3.60;;;7.10;99.90;;;;;;4859767;29;20541;-71
2022/12/28 00:10:15;;;;;;;8.65;3.78;;;7.10;99.90;;;;;;4851465;29;20045;-72
2022/12/28 00:12:40;;;;;;;8.00;3.58;;;7.20;99.90;;;;;;4835508;29;20069;-72
2022/12/28 00:15:06;;;;;;;7.80;3.97;;;7.30;99.90;;;;;;4856682;29;20054;-72
2022/12/28 00:17:32;;;;;;;5.65;3.28;;;7.30;99.90;;;;;;4848167;29;20045;-72
2022/12/28 00:19:58;;;;;;;7.05;3.60;;;7.30;99.90;;;;;;4829716;29;20061;-71
2022/12/28 00:22:25;;;;;;;9.13;3.78;;;7.30;99.90;;;;;;4857426;29;20480;-72
2022/12/28 00:24:51;;;;;;;9.27;3.97;;;7.30;99.90;;;;;;4842688;29;20045;-72
2022/12/28 00:27:17;;;;;;;8.02;3.45;;;7.30;99.90;;;;;;4856288;29;20196;-71
2022/12/28 00:29:42;;;;;;;7.68;3.90;;;7.20;99.90;;;;;;4842442;29;20049;-72
2022/12/28 00:32:08;;;;;;;5.75;3.85;;;7.30;99.90;;;;;;4859949;29;20049;-72
2022/12/28 00:34:34;;;;;;;6.57;3.90;;;7.30;99.90;;;;;;4823465;29;20371;-71
2022/12/28 00:36:59;;;;;;;6.95;4.00;;;7.40;99.90;;;;;;4865882;29;20040;-71
2022/12/28 00:39:25;;;;;;;8.07;4.07;;;7.40;99.90;;;;;;4834803;29;20144;-72
2022/12/28 00:41:51;;;;;;;9.00;4.40;;;7.40;99.90;;;;;;4829024;29;20487;-72
2022/12/28 00:44:16;;;;;;;9.10;4.50;;;7.50;99.90;;;;;;4854721;29;20081;-73
2022/12/28 00:46:42;;;;;;;8.32;4.07;;;7.50;99.90;;;;;;4838809;29;20061;-72
2022/12/28 00:49:08;;;;;;;6.47;4.45;;;7.60;99.90;;;;;;4827109;29;20037;-72
2022/12/28 00:51:33;;;;;;;8.23;4.32;;;7.60;99.90;;;;;;4841391;29;20056;-73
2022/12/28 00:53:59;;;;;;;7.30;4.22;;;7.60;99.90;;;;;;4839772;29;20647;-72
2022/12/28 00:56:25;;;;;;;9.43;4.00;;;7.60;99.90;;;;;;4865840;29;20042;-73
2022/12/28 00:58:58;;;;;;;7.20;4.22;;;7.70;99.90;;;;;;4841439;29;20057;-73
2022/12/28 01:01:25;;;;;;;10.13;3.95;;;7.60;99.90;;;;;;4843116;29;20133;-72
2022/12/28 01:03:53;;;;;;;5.97;4.15;;;7.60;99.90;;;;;;4862376;29;20044;-73
2022/12/28 01:06:19;;;;;;;9.45;4.25;;;7.60;99.90;;;;;;4859266;29;20049;-72
2022/12/28 01:08:45;;;;;;;;;;;7.60;99.90;;;;;;4858447;29;20085;-73
2022/12/28 01:11:14;;;;;;;10.07;4.20;;;7.60;99.90;;;;;;4856867;29;20023;-72
2022/12/28 01:13:40;;;;;;;8.90;4.55;;;7.70;99.90;;;;;;4830691;29;20111;-72
2022/12/28 01:16:26;;;;;;;7.80;4.22;;;7.60;99.90;;;;;;4840115;29;20045;-72
2022/12/28 01:18:54;;;;;;;9.85;4.15;;;7.60;99.90;;;;;;4862703;29;20089;-72
2022/12/28 01:21:25;;;;;;;7.20;4.13;;;7.70;99.90;;;;;;4846474;29;20034;-72
2022/12/28 01:23:54;;;;;;;8.52;3.95;;;7.70;99.90;;;;;;4852780;29;20071;-72
2022/12/28 01:26:20;;;;;;;7.43;4.05;;;7.70;99.90;;;;;;4823132;29;20053;-72
2022/12/28 01:28:46;;;;;;;10.68;4.78;;;7.70;99.90;;;;;;4845614;29;20046;-72
2022/12/28 01:31:14;;;;;;;6.90;4.43;;;7.70;99.90;;;;;;4833170;29;20105;-72
2022/12/28 01:33:40;;;;;;;8.73;4.47;;;7.70;99.90;;;;;;4848963;29;20129;-73
2022/12/28 01:36:16;;;;;;;7.82;4.40;;;7.70;99.90;;;;;;4865574;29;20045;-72
2022/12/28 01:38:43;;;;;;;10.07;4.23;;;7.80;99.90;;;;;;4848413;29;20063;-72
2022/12/28 01:41:11;;;;;;;10.43;4.57;;;7.70;99.90;;;;;;4823291;29;20490;-72
2022/12/28 01:43:40;;;;;;;8.95;4.55;;;7.80;99.90;;;;;;4856460;29;20054;-72
2022/12/28 01:46:09;;;;;;;10.27;4.45;;;7.80;99.90;;;;;;4868288;29;20053;-72
2022/12/28 01:48:37;;;;;;;7.07;4.35;;;7.80;99.90;;;;;;4855420;29;20049;-72
2022/12/28 01:51:03;;;;;;;8.13;4.55;;;7.80;99.90;;;;;;4846981;29;20052;-72
2022/12/28 01:53:29;;;;;;;9.30;4.53;;;7.70;99.90;;;;;;4843053;29;20132;-72
2022/12/28 01:55:55;;;;;;;7.03;4.18;;;7.70;99.90;;;;;;4856503;29;20057;-71
2022/12/28 01:58:24;;;;;;;7.70;4.38;;;7.80;99.90;;;;;;4854425;29;20050;-71
2022/12/28 02:00:50;;;;;;;7.55;4.50;;;7.80;99.90;;;;;;4832211;29;20069;-72
2022/12/28 02:03:21;;;;;;;6.70;4.15;;;7.80;99.90;;;;;;4854956;29;20475;-72
2022/12/28 02:05:52;;;;;;;8.02;5.00;;;7.70;99.90;;;;;;4858927;29;20060;-72
2022/12/28 02:08:18;;;;;;;6.50;4.40;;;7.80;99.90;;;;;;4868992;29;20045;-72
2022/12/28 02:10:45;;;;;;;10.47;4.73;;;7.80;99.90;;;;;;4831416;29;20040;-71
2022/12/28 02:13:13;;;;;;;9.75;4.50;;;7.90;99.90;;;;;;4857425;29;20376;-72
2022/12/28 02:15:39;;;;;;;8.15;4.90;;;8.00;99.90;;;;;;4859009;29;20388;-72
2022/12/28 02:18:05;;;;;;;7.18;4.72;;;7.90;99.90;;;;;;4875390;29;20053;-70
2022/12/28 02:20:46;;;;;;;7.68;4.50;;;8.00;99.90;;;;;;4859206;29;20369;-71
2022/12/28 02:23:34;;;;;;;8.57;4.47;;;7.90;99.90;;;;;;4857771;29;20045;-72
2022/12/28 02:26:18;;;;;;;5.90;4.53;;;8.10;99.90;;;;;;4869533;29;20049;-71
2022/12/28 02:29:21;;;;;;;7.07;4.60;;;8.10;99.90;;;;;;4857933;29;20050;-72
2022/12/28 02:32:05;;;;;;;6.13;4.57;;;8.10;99.90;;;;;;4852848;29;20045;-72
2022/12/28 02:34:46;;;;;;;7.40;4.70;;;8.10;99.90;;;;;;4861064;29;20045;-72
2022/12/28 02:37:33;;;;;;;8.02;4.63;;;8.20;99.90;;;;;;4855348;29;20053;-72
2022/12/28 02:40:07;;;;;;;8.85;4.35;;;8.20;99.90;;;;;;4859131;29;20283;-72
2022/12/28 02:42:36;;;;;;;7.32;4.43;;;8.30;99.90;;;;;;4854056;29;20048;-72
2022/12/28 02:50:55;;;;;;;7.38;4.78;;;8.20;99.90;;;;;;4851285;29;20073;-71
2022/12/28 02:53:23;;;;;;;7.03;4.15;;;8.50;99.90;;;;;;4855612;29;20076;-72
2022/12/28 02:56:07;;;;;;;5.20;4.00;;;8.50;99.90;;;;;;4862301;29;20193;-72
2022/12/28 02:58:48;;;;;;;4.55;3.72;;;8.40;99.90;;;;;;4861602;29;20046;-73
2022/12/28 03:01:23;;;;;;;5.93;3.95;;;8.50;99.90;;;;;;4855430;29;20137;-73
2022/12/28 03:04:03;;;;;;;7.05;4.53;;;8.80;99.90;;;;;;4855098;29;20110;-73
2022/12/28 03:09:57;;;;;;;6.28;4.32;;;8.90;99.90;;;;;;4862032;29;20101;-73
2022/12/28 03:12:34;;;;;;;5.03;3.92;;;8.70;99.90;;;;;;4856632;29;20049;-73
2022/12/28 03:15:08;;;;;;;6.18;4.60;;;8.80;99.90;;;;;;4860512;29;20065;-73
2022/12/28 03:31:38;;;;;;;6.90;4.57;;;9.30;99.90;;;;;;4858306;29;20084;-72
2022/12/28 03:34:07;;;;;;;5.35;4.60;;;9.40;99.90;;;;;;4858269;29;20077;-71
2022/12/28 03:36:46;;;;;;;7.43;4.60;;;9.80;99.90;;;;;;4856098;29;20114;-72
2022/12/28 03:39:37;;;;;;;6.80;4.50;;;9.50;99.90;;;;;;4841619;29;20041;-71
2022/12/28 03:44:53;;;;;;;7.25;4.65;;;9.60;99.90;;;;;;4857333;29;20080;-70
2022/12/28 03:47:22;;;;;;;7.57;4.80;;;9.60;99.90;;;;;;4855361;29;20057;-71
2022/12/28 03:49:48;;;;;;;7.18;4.93;;;9.80;99.90;;;;;;4855915;29;20060;-70
2022/12/28 03:52:14;;;;;;;6.57;4.72;;;9.90;99.90;;;;;;4858440;29;20049;-72
2022/12/28 03:54:40;;;;;;;6.03;4.63;;;9.70;99.90;;;;;;4857222;29;20041;-71
2022/12/28 03:57:06;;;;;;;6.55;4.97;;;10.00;99.90;;;;;;4856910;29;20406;-71
2022/12/28 03:59:32;;;;;;;7.75;5.00;;;9.70;99.90;;;;;;4830234;29;20042;-71
2022/12/28 04:01:57;;;;;;;5.85;5.03;;;10.00;99.90;;;;;;4856366;29;20052;-72
2022/12/28 04:04:23;;;;;;;6.30;4.63;;;9.90;99.90;;;;;;4856598;29;20089;-72
2022/12/28 04:06:48;;;;;;;5.45;4.15;;;9.80;99.90;;;;;;4855721;29;20088;-72
2022/12/28 04:09:14;;;;;;;5.88;4.50;;;10.00;99.90;;;;;;4855625;29;20186;-73
2022/12/28 04:11:40;;;;;;;5.95;4.35;;;9.80;99.90;;;;;;4856242;29;20076;-78
2022/12/28 04:14:05;;;;;;;5.70;4.30;;;9.60;99.90;;;;;;4857915;29;20049;-78
2022/12/28 04:16:31;;;;;;;5.15;4.10;;;9.20;99.90;;;;;;4856081;29;20046;-78
2022/12/28 04:18:57;;;;;;;5.68;4.15;;;9.00;99.90;;;;;;4856381;29;20057;-78
2022/12/28 04:21:22;;;;;;;4.78;4.28;;;9.60;99.90;;;;;;4828935;29;20129;-78
2022/12/28 04:23:48;;;;;;;4.70;3.95;;;11.20;99.90;;;;;;4855328;29;20052;-78
2022/12/28 04:26:16;;;;;;;5.45;4.40;;;9.70;99.90;;;;;;4856941;29;20068;-77
2022/12/28 04:28:41;;;;;;;5.50;4.50;;;12.30;99.90;;;;;;4837792;29;20042;-77
2022/12/28 04:31:10;;;;;;;4.68;3.85;;;11.60;99.90;;;;;;4850581;29;20049;-76
2022/12/28 04:33:37;;;;;;;5.10;3.92;;;12.20;99.90;;;;;;4854983;29;20049;-76
2022/12/28 04:36:13;;;;;;;4.60;3.60;;;9.30;99.90;;;;;;4857031;29;20053;-76
2022/12/28 04:38:39;;;;;;;3.90;3.50;;;9.90;99.90;;;;;;4857097;29;20045;-77
2022/12/28 04:41:06;;;;;;;4.15;3.53;;;11.90;99.90;;;;;;4855252;29;20049;-77
2022/12/28 04:43:32;;;;;;;4.20;3.80;;;11.50;99.90;;;;;;4857012;29;20046;-76
2022/12/28 04:46:04;;;;;;;4.18;3.55;;;12.40;99.90;;;;;;4854200;29;20045;-77
2022/12/28 04:48:30;;;;;;;4.07;3.67;;;13.30;99.90;;;;;;4857508;29;20409;-76
2022/12/28 04:50:56;;;;;;;5.28;4.10;;;12.10;99.90;;;;;;4852632;29;20104;-76
2022/12/28 04:53:22;;;;;;;;;;;13.30;99.90;;;;;;4856861;29;20044;-76
2022/12/28 04:55:48;;;;;;;3.95;3.42;;;11.10;99.90;;;;;;4832083;29;20094;-76
2022/12/28 04:58:14;;;;;;;4.05;3.63;;;11.10;99.90;;;;;;4853002;29;20041;-76
2022/12/28 05:00:39;;;;;;;4.65;3.83;;;9.10;99.90;;;;;;4841048;29;20045;-75
2022/12/28 05:03:05;;;;;;;5.15;4.38;;;9.50;99.90;;;;;;4855646;29;20037;-75
2022/12/28 05:05:32;;;;;;;4.72;4.28;;;13.20;99.90;;;;;;4857071;29;20042;-75
2022/12/28 05:08:01;;;;;;;4.90;4.35;;;8.90;99.90;;;;;;4839112;29;20089;-75
2022/12/28 05:10:28;;;;;;;5.20;4.43;;;12.90;99.90;;;;;;4855652;29;20108;-75
2022/12/28 05:12:55;;;;;;;4.93;4.43;;;9.50;99.90;;;;;;4841770;29;20071;-75
2022/12/28 05:15:21;;;;;;;5.68;4.53;;;12.70;99.90;;;;;;4855853;29;20152;-75
2022/12/28 05:17:47;;;;;;;5.20;4.70;;;12.10;99.90;;;;;;4854125;29;20399;-75
2022/12/28 05:20:13;;;;;;;6.00;5.03;;;9.50;99.90;;;;;;4843887;29;20055;-75
2022/12/28 05:22:38;;;;;;;5.10;4.60;;;10.80;99.90;;;;;;4862106;29;20449;-75
2022/12/28 05:25:04;;;;;;;4.95;4.50;;;9.50;99.90;;;;;;4852745;29;20473;-75
2022/12/28 05:27:30;;;;;;;6.03;5.43;;;13.30;99.90;;;;;;4854455;29;20486;-75
2022/12/28 05:29:56;;;;;;;5.15;4.65;;;10.50;99.90;;;;;;4855047;29;20123;-75
2022/12/28 05:32:22;;;;;;;5.93;5.32;;;8.80;99.90;;;;;;4838615;29;20128;-75
2022/12/28 05:34:47;;;;;;;5.80;5.20;;;13.70;99.90;;;;;;4829298;29;20050;-75
2022/12/28 05:37:13;;;;;;;5.55;4.95;;;9.10;99.90;;;;;;4855863;29;20052;-75
2022/12/28 05:39:38;;;;;;;5.97;5.47;;;8.70;99.90;;;;;;4867097;29;20407;-76
2022/12/28 05:42:04;;;;;;;5.95;5.35;;;9.00;99.90;;;;;;4854510;29;20237;-75
2022/12/28 05:44:31;;;;;;;7.50;6.00;;;12.70;99.90;;;;;;4841575;29;20089;-75
2022/12/28 05:46:56;;;;;;;6.70;6.10;;;14.20;99.90;;;;;;4859534;29;20500;-76
2022/12/28 05:49:22;;;;;;;5.90;5.40;;;10.10;99.90;;;;;;4860257;29;20073;-76
2022/12/28 05:51:50;;;;;;;6.90;6.30;;;13.60;99.90;;;;;;4864612;29;20068;-75
2022/12/28 05:54:19;;;;;;;8.25;6.68;;;14.20;99.90;;;;;;4825866;29;20052;-76
2022/12/28 05:56:45;;;;;;;7.35;6.65;;;10.70;99.90;;;;;;4855964;29;20050;-76
2022/12/28 05:59:12;;;;;;;7.68;6.95;;;13.40;99.90;;;;;;4859400;29;20052;-77
2022/12/28 06:01:40;;;;;;;7.65;6.95;;;14.50;99.90;;;;;;4857488;29;20048;-76
2022/12/28 06:04:10;;;;;;;8.75;7.43;;;10.90;99.90;;;;;;4834539;29;20037;-76
2022/12/28 06:06:36;;;;;;;7.93;7.13;;;13.50;99.90;;;;;;4864729;29;20410;-76
2022/12/28 06:09:02;;;;;;;8.23;7.13;;;14.80;99.90;;;;;;4850618;29;20050;-76
2022/12/28 06:11:28;;;;;;;11.32;8.40;;;12.60;99.90;;;;;;4858608;29;20174;-77
2022/12/28 06:13:56;;;;;;;8.88;8.05;;;10.00;99.90;;;;;;4851194;29;20049;-77
2022/12/28 06:16:24;;;;;;;9.45;8.55;;;14.30;99.90;;;;;;4861263;29;20060;-76
2022/12/28 06:18:51;;;;;;;8.80;7.90;;;12.20;99.90;;;;;;4865431;29;20082;-76
2022/12/28 06:21:29;;;;;;;8.32;7.53;;;9.50;99.90;;;;;;4842571;29;20037;-76
2022/12/28 06:23:57;;;;;;;8.85;7.93;;;14.40;99.90;;;;;;4852260;29;20398;-77
2022/12/28 06:26:23;;;;;;;8.43;7.18;;;10.50;99.90;;;;;;4862183;29;20057;-77
2022/12/28 06:28:49;;;;;;;8.23;7.25;;;13.20;99.90;;;;;;4865652;29;20492;-77
2022/12/28 06:31:16;;;;;;;8.90;7.20;;;10.30;99.90;;;;;;4855020;29;20064;-76
2022/12/28 06:33:42;;;;;;;7.63;6.80;;;11.10;99.90;;;;;;4861399;29;20056;-77
2022/12/28 06:36:10;;;;;;;;;;;11.20;99.90;;;;;;4865291;29;20049;-76
2022/12/28 06:38:36;;;;;;;7.95;6.63;;;13.30;99.90;;;;;;4861570;29;19925;-76
2022/12/28 06:41:03;;;;;;;7.57;6.00;;;14.90;99.90;;;;;;4858434;29;20113;-77
2022/12/28 06:43:33;;;;;;;6.38;5.78;;;15.30;99.90;;;;;;4852994;29;20117;-77
2022/12/28 06:46:00;;;;;;;6.72;5.90;;;11.80;99.90;;;;;;4843197;29;20117;-76
2022/12/28 06:48:27;;;;;;;6.82;5.68;;;9.90;99.90;;;;;;4854011;29;20045;-77
2022/12/28 06:50:58;;;;;;;7.47;6.55;;;12.60;99.90;;;;;;4856644;29;20133;-77
2022/12/28 06:53:26;;;;;;;7.38;6.63;;;10.50;99.90;;;;;;4859174;29;20050;-76
2022/12/28 06:55:56;;;;;;;7.10;6.40;;;10.10;99.90;;;;;;4860917;29;20041;-77
2022/12/28 06:58:23;;;;;;;6.90;6.20;;;13.40;99.90;;;;;;4843196;29;20063;-76
2022/12/28 07:00:49;;;;;;;7.35;6.65;;;12.60;99.90;;;;;;4853202;29;20381;-76
2022/12/28 07:03:15;;;;;;;6.93;6.28;;;15.90;99.90;;;;;;4856746;29;20056;-77
2022/12/28 07:05:40;;;;;;;6.60;6.00;;;12.30;99.90;;;;;;4858940;29;20110;-76
2022/12/28 07:08:06;;;;;;;7.03;6.32;;;15.20;99.90;;;;;;4855758;29;20580;-76
2022/12/28 07:10:33;;;;;;;6.43;5.68;;;13.90;99.90;;;;;;4853644;29;20045;-76
2022/12/28 07:12:59;;;;;;;6.50;5.78;;;11.60;99.90;;;;;;4858325;29;20501;-76
2022/12/28 07:15:25;;;;;;;6.70;5.50;;;12.20;99.90;;;;;;4855407;29;20049;-77
2022/12/28 07:17:51;;;;;;;6.45;5.85;;;12.30;99.90;;;;;;4835308;29;20049;-76
2022/12/28 07:20:16;;;;;;;5.75;5.13;;;12.60;99.90;;;;;;4865054;29;20040;-76
2022/12/28 07:22:42;;;;;;;6.20;5.60;;;11.60;99.90;;;;;;4859442;29;20049;-77
2022/12/28 07:25:08;;;;;;;7.30;6.03;;;14.40;99.90;;;;;;4855686;29;20041;-76
2022/12/28 07:27:34;;;;;;;7.28;6.30;;;14.10;99.90;;;;;;4853769;29;20057;-77
2022/12/28 07:30:00;;;;;;;7.32;6.15;;;10.50;99.90;;;;;;4836865;29;20128;-76
2022/12/28 07:32:26;;;;;;;7.35;6.63;;;14.00;99.90;;;;;;4855866;29;20048;-76
2022/12/28 07:34:52;;;;;;;7.55;6.35;;;11.70;99.90;;;;;;4856455;29;20052;-76
2022/12/28 07:37:17;;;;;;;8.48;6.68;;;15.10;99.90;;;;;;4855799;29;20053;-76
2022/12/28 07:39:43;;;;;;;7.40;6.38;;;11.20;99.90;;;;;;4836900;29;20049;-77
2022/12/28 07:42:10;;;;;;;12.05;6.80;;;12.60;99.90;;;;;;4856290;29;20434;-76
2022/12/28 07:44:44;;;;;;;6.95;6.25;;;13.10;99.90;;;;;;4838678;29;20057;-75
2022/12/28 07:47:10;;;;;;;8.68;7.18;;;10.50;99.90;;;;;;4837998;29;20045;-76
2022/12/28 07:49:36;;;;;;;9.52;6.47;;;11.00;99.90;;;;;;4851633;29;20114;-75
2022/12/28 07:52:02;;;;;;;10.82;7.60;;;11.90;99.90;;;;;;4852230;29;20061;-75
2022/12/28 07:54:27;;;;;;;9.88;7.47;;;15.80;99.90;;;;;;4836607;29;20168;-75
2022/12/28 07:56:53;;;;;;;8.23;7.35;;;11.70;99.90;;;;;;4849394;29;20425;-76
2022/12/28 07:59:19;;;;;;;10.27;7.05;;;11.60;99.90;;;;;;4848786;29;20080;-75
2022/12/28 08:01:44;;;;;;;9.80;6.55;;;15.50;99.90;;;;;;4854351;29;20045;-75
2022/12/28 08:04:12;;;;;;;9.25;7.28;;;12.30;99.90;;;;;;4848680;29;20147;-73
2022/12/28 08:06:40;;;;;;;10.13;7.13;;;12.70;99.90;;;;;;4849900;29;20088;-75
2022/12/28 08:09:07;;;;;;;8.05;6.90;;;12.60;99.90;;;;;;4847751;29;20060;-73
2022/12/28 08:11:36;;;;;;;10.68;7.20;;;11.10;99.90;;;;;;4850640;29;20550;-75
2022/12/28 08:14:02;;;;;;;8.73;7.18;;;15.90;99.90;;;;;;4840576;29;20052;-75
2022/12/28 08:16:32;;;;;;;8.63;7.55;;;16.20;99.90;;;;;;4858081;29;20045;-75
2022/12/28 08:18:58;;;;;;;9.23;7.63;;;13.20;99.90;;;;;;4855890;29;20486;-76
2022/12/28 08:21:28;;;;;;;;;;;11.60;99.90;;;;;;4857940;29;20045;-76
2022/12/28 08:23:54;;;;;;;8.70;7.80;;;10.80;99.90;;;;;;4848070;29;19920;-75
2022/12/28 08:26:23;;;;;;;9.25;8.35;;;11.50;99.90;;;;;;4845778;29;20719;-75
2022/12/28 08:28:51;;;;;;;9.95;8.95;;;16.50;99.90;;;;;;4851395;29;20176;-77
2022/12/28 08:31:20;;;;;;;9.48;8.50;;;13.90;99.90;;;;;;4837727;29;20046;-76
2022/12/28 08:33:47;;;;;;;9.73;8.73;;;15.70;99.90;;;;;;4846219;29;20049;-76
2022/12/28 08:36:12;;;;;;;9.82;8.55;;;11.00;99.90;;;;;;4845691;29;20041;-75
2022/12/28 08:38:41;;;;;;;8.85;7.97;;;12.80;99.90;;;;;;4842411;29;20498;-75
2022/12/28 08:41:09;;;;;;;8.45;7.65;;;13.80;99.90;;;;;;4842205;29;20094;-75
2022/12/28 08:43:35;;;;;;;8.77;7.97;;;15.10;99.90;;;;;;4839433;29;20702;-76
2022/12/28 08:46:07;;;;;;;8.55;7.65;;;11.60;99.90;;;;;;4834290;29;20053;-75
2022/12/28 08:48:34;;;;;;;8.15;7.35;;;12.80;99.90;;;;;;4822701;29;20046;-76
2022/12/28 08:51:08;;;;;;;7.55;6.85;;;14.20;99.90;;;;;;4856734;29;20379;-76
2022/12/28 08:53:35;;;;;;;8.10;6.72;;;16.00;99.90;;;;;;4842842;29;20038;-76
2022/12/28 08:56:06;;;;;;;6.93;6.28;;;11.20;99.90;;;;;;4834677;29;20049;-75
2022/12/28 08:58:33;;;;;;;6.30;5.70;;;12.90;99.90;;;;;;4851019;29;20045;-76
2022/12/28 09:01:05;;;;;;;5.75;5.25;;;13.60;99.90;;;;;;4858298;29;20121;-75
2022/12/28 09:03:31;;;;;;;5.22;4.10;;;12.20;99.90;;;;;;4826119;29;20398;-75
2022/12/28 09:05:57;;;;;;;4.38;3.97;;;13.30;99.90;;;;;;4857560;29;20045;-76
2022/12/28 09:08:22;;;;;;;3.72;3.42;;;16.60;99.90;;;;;;4842230;29;20509;-75
2022/12/28 09:10:48;;;;;;;3.63;3.33;;;15.00;99.90;;;;;;4858241;29;20049;-76
2022/12/28 09:13:13;;;;;;;3.80;3.40;;;15.90;99.90;;;;;;4858555;29;20064;-76
2022/12/28 09:15:39;;;;;;;3.70;3.40;;;11.80;99.90;;;;;;4858003;29;20169;-76
2022/12/28 09:18:06;;;;;;;3.22;2.83;;;13.30;99.90;;;;;;4859922;29;20085;-76
2022/12/28 09:20:33;;;;;;;2.83;2.60;;;16.30;99.90;;;;;;4861911;29;20121;-76
2022/12/28 09:22:59;;;;;;;2.70;2.30;;;14.00;99.90;;;;;;4846136;29;20114;-76
2022/12/28 09:25:24;;;;;;;2.88;2.65;;;11.40;99.90;;;;;;4860532;29;20049;-77
2022/12/28 09:27:50;;;;;;;2.90;2.47;;;12.00;99.90;;;;;;4860311;29;20155;-75
2022/12/28 09:30:16;;;;;;;2.70;2.50;;;16.60;99.90;;;;;;4860976;29;20049;-76
2022/12/28 09:32:42;;;;;;;2.75;2.53;;;15.60;99.90;;;;;;4857548;29;20049;-77
2022/12/28 09:35:07;;;;;;;3.00;2.80;;;11.00;99.90;;;;;;4854725;29;20526;-76
2022/12/28 09:37:33;;;;;;;3.40;3.10;;;16.70;99.90;;;;;;4845686;29;20069;-76
2022/12/28 09:39:58;;;;;;;3.85;3.55;;;15.60;99.90;;;;;;4860219;29;20081;-75
2022/12/28 09:42:27;;;;;;;4.03;3.63;;;13.70;99.90;;;;;;4845867;29;20044;-75
2022/12/28 09:45:01;;;;;;;4.60;4.20;;;16.80;99.90;;;;;;4860395;29;20198;-75
2022/12/28 09:47:31;;;;;;;4.13;3.80;;;14.60;99.90;;;;;;4860323;29;20453;-76
2022/12/28 09:50:15;;;;;;;3.72;3.42;;;11.10;99.90;;;;;;4860470;29;20166;-75
2022/12/28 09:53:02;;;;;;;4.18;3.78;;;16.60;99.90;;;;;;4860365;29;20060;-76
2022/12/28 09:55:29;;;;;;;4.55;4.15;;;13.60;99.90;;;;;;4860955;29;20053;-76
2022/12/28 09:57:57;;;;;;;3.85;3.55;;;14.50;99.90;;;;;;4841819;29;20077;-75
2022/12/28 10:00:35;;;;;;;4.57;4.18;;;11.20;99.90;;;;;;4860505;29;20532;-74
2022/12/28 10:03:04;;;;;;;4.15;3.70;;;15.80;99.90;;;;;;4862848;29;20048;-76
2022/12/28 10:05:30;;;;;;;3.63;3.33;;;16.70;99.90;;;;;;4860813;29;20045;-76
2022/12/28 10:08:02;;;;;;;3.70;3.30;;;16.00;99.90;;;;;;4860375;29;20513;-76
2022/12/28 10:10:28;;;;;;;3.70;3.40;;;16.70;99.90;;;;;;4845008;29;20049;-76
2022/12/28 10:12:57;;;;;;;3.22;2.92;;;12.10;99.90;;;;;;4843218;29;20084;-74
2022/12/28 10:15:26;;;;;;;3.40;3.10;;;14.60;99.90;;;;;;4854621;29;20125;-75
2022/12/28 10:17:52;;;;;;;3.45;3.15;;;14.00;99.90;;;;;;4855172;29;20802;-76
2022/12/28 10:20:20;;;;;;;3.13;2.83;;;13.10;99.90;;;;;;4823659;29;20129;-76
2022/12/28 10:22:55;;;;;;;3.38;3.08;;;12.70;99.90;;;;;;4860745;29;20045;-76
2022/12/28 10:25:23;;;;;;;2.97;2.67;;;16.20;99.90;;;;;;4860541;29;20049;-76
2022/12/28 10:27:49;;;;;;;2.90;2.65;;;12.80;99.90;;;;;;4859460;29;20053;-76
2022/12/28 10:30:25;;;;;;;3.28;2.97;;;15.70;99.90;;;;;;4859550;29;20041;-76
2022/12/28 10:32:55;;;;;;;3.15;2.60;;;16.60;99.90;;;;;;4859891;29;20049;-77
2022/12/28 10:35:41;;;;;;;3.55;3.25;;;13.90;99.90;;;;;;4842594;29;20754;-77
2022/12/28 10:38:20;;;;;;;3.55;3.20;;;11.40;99.90;;;;;;4838072;29;20064;-76
2022/12/28 10:41:05;;;;;;;3.97;3.58;;;11.50;99.90;;;;;;4847520;29;20110;-76
2022/12/28 10:43:34;;;;;;;4.25;3.70;;;15.50;99.90;;;;;;4831941;29;20054;-75
2022/12/28 10:46:02;;;;;;;4.20;3.80;;;16.80;99.90;;;;;;4860226;29;20056;-77
2022/12/28 10:48:34;;;;;;;4.45;4.05;;;11.30;99.90;;;;;;4851911;29;20049;-77
2022/12/28 10:51:10;;;;;;;4.40;4.00;;;16.60;99.90;;;;;;4841895;29;20112;-77
2022/12/28 10:53:54;;;;;;;5.22;3.92;;;11.30;99.90;;;;;;4849696;29;20088;-77
2022/12/28 10:56:31;;;;;;;4.32;3.92;;;14.40;99.90;;;;;;4842620;29;20049;-77
2022/12/28 10:59:09;;;;;;;4.25;3.85;;;11.30;99.90;;;;;;4833666;29;20057;-77
2022/12/28 11:01:35;;;;;;;4.25;3.85;;;11.40;99.90;;;;;;4845693;29;20074;-77
2022/12/28 11:04:14;;;;;;;4.57;4.18;;;14.70;99.90;;;;;;4834060;29;20049;-77
2022/12/28 11:06:54;;;;;;;4.60;4.03;;;15.30;99.90;;;;;;4828656;29;20046;-77
2022/12/28 11:09:33;;;;;;;4.13;3.72;;;12.80;99.90;;;;;;4856320;29;20152;-78
2022/12/28 11:12:23;;;;;;;4.25;3.78;;;16.00;99.90;;;;;;4856307;29;20097;-76
2022/12/28 11:14:51;;;;;;;4.00;3.60;;;14.70;99.90;;;;;;4850460;29;20125;-76
2022/12/28 11:17:28;;;;;;;3.15;2.75;;;16.10;99.90;;;;;;4859422;29;20512;-77
2022/12/28 11:20:01;;;;;;;;;;;12.00;99.90;;;;;;4852550;29;20048;-70
2022/12/28 11:22:28;;;;;;;4.25;3.80;;;12.00;99.90;;;;;;4850417;29;19928;-70
2022/12/28 11:24:56;;;;;;;3.58;2.85;;;16.30;99.90;;;;;;4850155;29;20073;-71
2022/12/28 11:27:23;;;;;;;3.33;2.75;;;16.50;99.90;;;;;;4840268;29;20101;-71
2022/12/28 11:29:52;;;;;;;3.78;2.70;;;15.00;99.90;;;;;;4838696;29;20495;-70
2022/12/28 11:32:33;;;;;;;2.60;2.40;;;14.80;99.90;;;;;;4845937;29;20053;-70
2022/12/28 11:34:59;;;;;;;2.70;2.30;;;13.10;99.90;;;;;;4852518;29;20165;-71
2022/12/28 11:37:25;;;;;;;2.83;2.53;;;13.40;99.90;;;;;;4855888;29;20045;-72
2022/12/28 11:39:52;;;;;;;3.22;2.33;;;16.00;99.90;;;;;;4853646;29;20053;-70
2022/12/28 11:42:33;;;;;;;;;;;15.50;99.90;;;;;;4856193;29;20045;-70
2022/12/28 11:45:04;;;;;;;2.38;2.00;;;11.60;99.90;;;;;;4868886;29;19924;-70
2022/12/28 11:47:35;;;;;;;2.72;2.10;;;13.30;99.90;;;;;;4843090;29;20109;-76
2022/12/28 11:50:38;;;;;;;3.10;2.10;;;12.90;99.90;;;;;;4859116;29;20157;-70
2022/12/28 11:53:37;;;;;;;3.00;2.22;;;15.30;99.90;;;;;;4855751;29;20049;-70
2022/12/28 11:56:05;;;;;;;2.30;2.08;;;12.20;99.90;;;;;;4839233;29;20447;-78
2022/12/28 11:58:41;;;;;;;2.63;2.35;;;11.60;99.90;;;;;;4858074;29;20054;-76
2022/12/28 12:01:32;;;;;;;2.80;2.10;;;17.00;99.90;;;;;;4856036;29;20089;-76
2022/12/28 12:03:57;;;;;;;2.40;2.20;;;12.40;99.90;;;;;;4851638;29;20502;-76
2022/12/28 12:06:44;;;;;;;2.72;2.20;;;12.60;99.90;;;;;;4851595;29;20050;-74
2022/12/28 12:09:26;;;;;;;2.75;2.33;;;14.00;99.90;;;;;;4854570;29;20409;-77
2022/12/28 12:11:57;;;;;;;2.60;2.40;;;12.20;99.90;;;;;;4856947;29;20053;-76
2022/12/28 12:14:25;;;;;;;3.90;2.75;;;11.60;99.90;;;;;;4843062;29;20049;-77
2022/12/28 12:17:03;;;;;;;2.70;2.45;;;11.70;99.90;;;;;;4841768;29;20041;-76
2022/12/28 12:19:35;;;;;;;3.20;2.35;;;15.50;99.90;;;;;;4845486;29;20053;-78
2022/12/28 12:22:24;;;;;;;2.83;2.63;;;12.60;99.90;;;;;;4852942;29;20046;-72
2022/12/28 12:24:55;;;;;;;2.88;2.50;;;16.30;99.90;;;;;;4854027;29;20042;-72
2022/12/28 12:27:35;;;;;;;2.92;2.72;;;16.20;99.90;;;;;;4856124;29;20778;-71
2022/12/28 12:30:26;;;;;;;3.17;2.88;;;12.00;99.90;;;;;;4850591;29;20406;-71
2022/12/28 12:33:07;;;;;;;3.08;2.65;;;12.30;99.90;;;;;;4851505;29;20109;-72
2022/12/28 12:35:55;;;;;;;3.40;2.83;;;12.70;99.90;;;;;;4847189;29;20053;-72
2022/12/28 12:38:49;;;;;;;2.75;2.55;;;12.60;99.90;;;;;;4851664;29;20431;-70
2022/12/28 12:41:21;;;;;;;2.60;2.40;;;12.60;99.90;;;;;;4835046;29;20124;-70
2022/12/28 12:44:14;;;;;;;3.38;2.50;;;16.10;99.90;;;;;;4851499;29;20069;-70
2022/12/28 12:46:52;;;;;;;2.40;2.20;;;12.60;99.90;;;;;;4850539;29;20069;-71
2022/12/28 12:49:53;;;;;;;2.05;1.90;;;16.40;99.90;;;;;;4846373;29;20140;-70
2022/12/28 12:52:37;;;;;;;2.40;2.20;;;14.60;99.90;;;;;;4829916;29;20386;-70
2022/12/28 12:55:36;;;;;;;2.50;2.30;;;16.10;99.90;;;;;;4845230;29;20048;-70
2022/12/28 12:58:15;;;;;;;3.17;2.10;;;16.30;99.90;;;;;;4846348;29;20049;-70
2022/12/28 13:00:57;;;;;;;2.30;2.05;;;15.90;99.90;;;;;;4863026;29;20133;-70
2022/12/28 13:03:32;;;;;;;2.08;1.80;;;11.80;99.90;;;;;;4851249;29;20045;-71
2022/12/28 13:05:57;;;;;;;2.40;1.90;;;15.40;99.90;;;;;;4849000;29;20049;-70
2022/12/28 13:08:54;;;;;;;1.75;1.65;;;15.60;99.90;;;;;;4835564;29;20045;-71
2022/12/28 13:11:21;;;;;;;2.13;1.60;;;16.50;99.90;;;;;;4849643;29;20065;-70
2022/12/28 13:13:50;;;;;;;2.00;1.77;;;16.10;99.90;;;;;;4848620;29;20082;-71
2022/12/28 13:16:18;;;;;;;2.17;1.80;;;14.90;99.90;;;;;;4849805;29;20057;-70
2022/12/28 13:18:56;;;;;;;2.05;1.80;;;11.70;99.90;;;;;;4848723;29;20041;-71
2022/12/28 13:21:24;;;;;;;2.47;1.95;;;12.50;99.90;;;;;;4851075;29;20050;-70
2022/12/28 13:23:51;;;;;;;2.42;2.17;;;16.20;99.90;;;;;;4851554;29;20474;-70
2022/12/28 13:26:22;;;;;;;2.25;2.00;;;15.20;99.90;;;;;;4846248;29;20045;-70
2022/12/28 13:28:54;;;;;;;3.15;2.20;;;16.10;99.90;;;;;;4851867;29;20053;-70
2022/12/28 13:31:22;;;;;;;2.50;2.00;;;15.50;99.90;;;;;;4851431;29;20045;-71